createdAt,value
2024-04-22T00:01:48.994Z,101775.28
2024-04-22T00:04:20.225Z,101757.63
2024-04-22T00:06:51.150Z,101770.94
2024-04-22T00:09:19.275Z,101759.59
2024-04-22T00:11:49.974Z,101748.97
2024-04-22T00:14:19.070Z,101728.84
2024-04-22T00:16:49.989Z,101715.66
2024-04-22T00:19:21.033Z,101725.44
2024-04-22T00:21:51.836Z,101735.03
2024-04-22T00:24:19.931Z,101721.91
2024-04-22T00:26:50.748Z,101721.09
2024-04-22T00:29:18.714Z,101710.69
2024-04-22T00:31:49.544Z,101696.78
2024-04-22T00:34:20.290Z,101701.16
2024-04-22T00:36:51.167Z,101681.66
2024-04-22T00:39:19.232Z,101690.75
2024-04-22T00:41:49.934Z,101672.44
2024-04-22T00:44:18.113Z,101659.31
2024-04-22T00:46:49.246Z,101646.22
2024-04-22T00:49:20.545Z,101673.25
2024-04-22T00:51:51.816Z,101661.94
2024-04-22T00:54:19.951Z,101653.31
2024-04-22T00:56:52.363Z,101639.47
2024-04-22T00:59:20.626Z,101632.63
2024-04-22T01:01:52.465Z,101621.44
2024-04-22T01:04:26.040Z,101612.72
2024-04-22T01:06:54.162Z,101583.69
2024-04-22T01:09:24.876Z,101593.63
2024-04-22T01:11:53.193Z,101585.84
2024-04-22T01:14:24.303Z,101571.06
2024-04-22T01:16:55.797Z,101565.00
2024-04-22T01:19:29.584Z,101557.25
2024-04-22T01:22:00.579Z,101563.38
2024-04-22T01:24:31.335Z,101550.31
2024-04-22T01:27:06.101Z,101532.06
2024-04-22T01:29:34.167Z,101523.25
2024-04-22T01:32:05.726Z,101535.72
2024-04-22T01:34:34.008Z,101517.50
2024-04-22T01:37:07.561Z,101512.38
2024-04-22T01:39:35.647Z,101501.16
2024-04-22T01:42:06.422Z,101484.69
2024-04-22T01:44:34.461Z,101490.81
2024-04-22T01:47:05.262Z,101439.09
2024-04-22T01:49:33.680Z,101463.78
2024-04-22T01:52:07.358Z,101475.22
2024-04-22T01:54:35.883Z,101457.13
2024-04-22T01:57:06.887Z,101433.31
2024-04-22T01:59:35.204Z,101454.53
2024-04-22T02:02:05.817Z,101451.97
2024-04-22T02:04:34.037Z,101427.34
2024-04-22T02:07:08.204Z,101438.88
2024-04-22T02:09:36.395Z,101438.88
2024-04-22T02:12:07.379Z,101423.31
2024-04-22T02:14:37.079Z,101406.69
2024-04-22T02:17:08.252Z,101413.69
2024-04-22T02:19:36.445Z,101421.66
2024-04-22T02:22:09.844Z,101415.44
2024-04-22T02:24:37.954Z,101423.41
2024-04-22T02:27:08.976Z,101407.88
2024-04-22T02:29:37.049Z,101406.13
2024-04-22T02:32:08.528Z,101397.41
2024-04-22T02:34:37.609Z,101413.13
2024-04-22T02:37:11.232Z,101401.75
2024-04-22T02:39:39.355Z,101408.84
2024-04-22T02:42:10.511Z,101406.19
2024-04-22T02:44:38.770Z,101401.00
2024-04-22T02:47:09.952Z,101381.81
2024-04-22T02:49:38.270Z,101379.28
2024-04-22T02:52:11.971Z,101358.03
2024-04-22T02:54:40.080Z,101371.31
2024-04-22T02:57:10.778Z,101345.16
2024-04-22T02:59:38.923Z,101356.59
2024-04-22T03:02:09.607Z,101347.81
2024-04-22T03:04:37.739Z,101346.13
2024-04-22T03:07:11.720Z,101351.34
2024-04-22T03:09:44.095Z,101376.31
2024-04-22T03:12:15.336Z,101362.44
2024-04-22T03:14:43.838Z,101341.41
2024-04-22T03:17:14.867Z,101325.66
2024-04-22T03:19:45.946Z,101325.81
2024-04-22T03:22:19.424Z,101335.28
2024-04-22T03:24:48.298Z,101272.75
2024-04-22T03:27:19.289Z,101275.69
2024-04-22T03:29:47.535Z,101283.47
2024-04-22T03:32:18.735Z,101317.81
2024-04-22T03:34:46.802Z,101299.56
2024-04-22T03:37:20.645Z,101303.91
2024-04-22T03:39:51.517Z,101280.22
2024-04-22T03:42:22.607Z,101264.31
2024-04-22T03:44:53.602Z,101265.13
2024-04-22T03:47:40.237Z,101306.34
2024-04-22T03:50:11.344Z,101315.00
2024-04-22T03:52:44.841Z,101293.09
2024-04-22T03:55:15.716Z,101314.34
2024-04-22T03:57:48.823Z,101297.06
2024-04-22T04:00:21.422Z,101304.84
2024-04-22T04:02:49.584Z,101286.66
2024-04-22T04:05:22.850Z,101271.13
2024-04-22T04:07:55.378Z,101261.66
2024-04-22T04:10:26.978Z,101254.72
2024-04-22T04:12:55.120Z,101241.75
2024-04-22T04:15:26.248Z,101248.75
2024-04-22T04:17:56.204Z,101199.91
2024-04-22T04:20:27.174Z,101198.59
2024-04-22T04:22:58.064Z,101195.22
2024-04-22T04:25:30.504Z,101187.50
2024-04-22T04:27:58.582Z,101183.13
2024-04-22T04:30:29.347Z,101185.72
2024-04-22T04:32:58.235Z,101175.41
2024-04-22T04:35:28.879Z,101166.00
2024-04-22T04:37:59.774Z,101175.69
2024-04-22T04:40:30.582Z,101166.19
2024-04-22T04:42:58.674Z,101150.47
2024-04-22T04:45:29.406Z,101169.84
2024-04-22T04:47:57.576Z,101160.31
2024-04-22T04:50:28.306Z,101149.97
2024-04-22T04:52:59.996Z,101142.25
2024-04-22T04:55:30.825Z,101134.47
2024-04-22T04:58:10.652Z,101122.25
2024-04-22T05:00:41.810Z,101047.84
2024-04-22T05:03:10.596Z,101100.72
2024-04-22T05:05:47.590Z,101103.38
2024-04-22T05:08:26.405Z,101047.22
2024-04-22T05:10:59.160Z,101099.03
2024-04-22T05:13:27.356Z,101099.16
2024-04-22T05:15:58.500Z,101064.22
2024-04-22T05:18:27.538Z,101084.56
2024-04-22T05:20:58.339Z,101082.88
2024-04-22T05:23:31.913Z,101046.19
2024-04-22T05:26:00.168Z,101078.66
2024-04-22T05:28:30.977Z,101074.28
2024-04-22T05:30:59.191Z,101065.63
2024-04-22T05:33:45.918Z,101050.63
2024-04-22T05:36:16.816Z,101065.56
2024-04-22T05:38:51.449Z,101072.53
2024-04-22T05:41:23.995Z,101063.75
2024-04-22T05:43:54.754Z,101063.00
2024-04-22T05:46:25.734Z,101025.53
2024-04-22T05:48:53.782Z,101020.44
2024-04-22T05:51:24.501Z,101013.47
2024-04-22T05:53:58.001Z,101004.94
2024-04-22T05:56:26.098Z,100998.84
2024-04-22T05:58:56.814Z,101012.78
2024-04-22T06:01:25.067Z,100994.59
2024-04-22T06:03:56.771Z,100996.38
2024-04-22T06:06:24.937Z,100925.38
2024-04-22T06:08:58.425Z,100991.22
2024-04-22T06:11:26.662Z,101001.63
2024-04-22T06:13:57.362Z,100985.22
2024-04-22T06:16:27.004Z,100988.69
2024-04-22T06:18:57.820Z,100996.50
2024-04-22T06:21:25.991Z,101010.47
2024-04-22T06:23:59.336Z,101013.13
2024-04-22T06:26:27.439Z,101008.78
2024-04-22T06:28:58.256Z,101002.78
2024-04-22T06:31:26.333Z,100988.03
2024-04-22T06:33:57.005Z,100977.63
2024-04-22T06:36:25.157Z,100969.81
2024-04-22T06:38:55.812Z,100964.66
2024-04-22T06:41:26.614Z,100973.38
2024-04-22T06:43:57.387Z,100947.03
2024-04-22T06:46:26.012Z,100967.28
2024-04-22T06:48:56.772Z,100958.59
2024-04-22T06:51:25.916Z,100939.34
2024-04-22T06:53:56.638Z,100948.19
2024-04-22T06:56:28.888Z,100939.47
2024-04-22T06:58:59.754Z,100954.47
2024-04-22T07:01:35.206Z,100963.19
2024-04-22T07:04:11.030Z,100964.97
2024-04-22T07:06:39.178Z,100950.16
2024-04-22T07:09:18.057Z,100955.41
2024-04-22T07:11:48.975Z,100957.19
2024-04-22T07:14:21.205Z,100954.56
2024-04-22T07:16:55.251Z,100962.47
2024-04-22T07:19:26.176Z,100931.88
2024-04-22T07:21:54.291Z,100959.06
2024-04-22T07:24:26.381Z,100943.38
2024-04-22T07:26:59.576Z,100933.75
2024-04-22T07:29:30.757Z,100941.69
2024-04-22T07:31:59.481Z,100932.94
2024-04-22T07:34:30.767Z,100917.09
2024-04-22T07:37:10.800Z,100893.56
2024-04-22T07:39:45.546Z,100847.31
2024-04-22T07:42:16.464Z,100863.19
2024-04-22T07:44:47.608Z,100851.88
2024-04-22T07:47:15.790Z,100809.13
2024-04-22T07:49:46.699Z,100848.34
2024-04-22T07:52:16.121Z,100852.69
2024-04-22T07:54:47.797Z,100884.81
2024-04-22T07:57:19.355Z,100894.41
2024-04-22T07:59:50.739Z,100900.44
2024-04-22T08:02:19.483Z,100874.31
2024-04-22T08:04:50.869Z,100865.72
2024-04-22T08:07:20.649Z,100858.81
2024-04-22T08:09:51.865Z,100849.34
2024-04-22T08:12:22.764Z,100845.84
2024-04-22T08:14:53.850Z,100852.00
2024-04-22T08:17:22.543Z,100845.13
2024-04-22T08:19:54.877Z,100843.47
2024-04-22T08:22:24.731Z,100835.69
2024-04-22T08:24:55.533Z,100828.78
2024-04-22T08:27:26.350Z,100818.44
2024-04-22T08:29:59.590Z,100822.00
2024-04-22T08:32:28.064Z,100794.28
2024-04-22T08:34:59.302Z,100788.19
2024-04-22T08:37:27.657Z,100770.88
2024-04-22T08:39:58.382Z,100775.31
2024-04-22T08:42:29.441Z,100773.63
2024-04-22T08:45:00.342Z,100766.66
2024-04-22T08:47:28.925Z,100771.97
2024-04-22T08:49:59.714Z,100762.38
2024-04-22T08:52:33.646Z,100751.13
2024-04-22T08:55:11.626Z,100732.88
2024-04-22T08:57:42.516Z,100734.72
2024-04-22T09:00:14.102Z,100726.97
2024-04-22T09:02:42.483Z,100697.28
2024-04-22T09:05:13.434Z,100731.38
2024-04-22T09:07:51.226Z,100718.31
2024-04-22T09:10:55.446Z,100732.38
2024-04-22T09:13:18.827Z,100720.16
2024-04-22T09:15:49.931Z,100734.09
2024-04-22T09:18:18.741Z,100737.63
2024-04-22T09:20:49.537Z,100736.78
2024-04-22T09:23:18.996Z,100741.13
2024-04-22T09:25:50.472Z,100722.00
2024-04-22T09:28:28.982Z,100729.97
2024-04-22T09:31:05.063Z,100721.28
2024-04-22T09:33:36.038Z,100727.44
2024-04-22T09:36:08.868Z,100712.75
2024-04-22T09:38:46.390Z,100687.47
2024-04-22T09:41:19.514Z,100697.16
2024-04-22T09:43:57.071Z,100679.72
2024-04-22T09:46:32.916Z,100679.78
2024-04-22T09:49:02.301Z,100643.22
2024-04-22T09:51:33.476Z,100670.31
2024-04-22T09:54:01.783Z,100680.00
2024-04-22T09:56:35.343Z,100686.97
2024-04-22T09:59:07.582Z,100693.97
2024-04-22T10:01:39.499Z,100682.66
2024-04-22T10:04:09.320Z,100658.28
2024-04-22T10:06:40.180Z,100665.28
2024-04-22T10:09:08.333Z,100650.53
2024-04-22T10:11:40.944Z,100649.69
2024-04-22T10:14:18.257Z,100649.66
2024-04-22T10:16:57.880Z,100647.91
2024-04-22T10:19:29.374Z,100627.00
2024-04-22T10:22:04.026Z,100631.34
2024-04-22T10:24:36.993Z,100631.34
2024-04-22T10:27:12.282Z,100647.94
2024-04-22T10:29:44.260Z,100640.94
2024-04-22T10:32:15.583Z,100635.72
2024-04-22T10:34:45.903Z,100628.72
2024-04-22T10:37:17.605Z,100632.22
2024-04-22T10:39:45.904Z,100626.97
2024-04-22T10:42:17.271Z,100626.09
2024-04-22T10:44:48.615Z,100607.78
2024-04-22T10:47:19.491Z,100574.69
2024-04-22T10:49:48.427Z,100617.38
2024-04-22T10:52:19.188Z,100617.38
2024-04-22T10:54:51.907Z,100612.13
2024-04-22T10:57:24.121Z,100605.13
2024-04-22T10:59:57.376Z,100604.22
2024-04-22T11:02:28.254Z,100591.09
2024-04-22T11:04:56.887Z,100587.59
2024-04-22T11:07:30.388Z,100577.06
2024-04-22T11:09:59.456Z,100570.91
2024-04-22T11:12:32.291Z,100563.91
2024-04-22T11:15:03.795Z,100574.28
2024-04-22T11:17:35.101Z,100583.06
2024-04-22T11:20:12.478Z,100570.81
2024-04-22T11:22:44.861Z,100563.84
2024-04-22T11:25:13.252Z,100575.19
2024-04-22T11:27:44.532Z,100579.56
2024-04-22T11:30:15.660Z,100593.53
2024-04-22T11:32:46.559Z,100575.25
2024-04-22T11:35:14.749Z,100581.34
2024-04-22T11:37:45.496Z,100566.56
2024-04-22T11:40:14.036Z,100545.63
2024-04-22T11:42:44.846Z,100569.13
2024-04-22T11:45:15.599Z,100542.09
2024-04-22T11:47:46.731Z,100538.59
2024-04-22T11:50:15.071Z,100546.38
2024-04-22T11:52:45.971Z,100528.91
2024-04-22T11:55:14.517Z,100535.84
2024-04-22T11:57:45.374Z,100539.31
2024-04-22T12:00:16.401Z,100538.41
2024-04-22T12:02:47.488Z,100541.03
2024-04-22T12:05:15.770Z,100529.69
2024-04-22T12:07:47.893Z,100520.94
2024-04-22T12:10:16.466Z,100523.59
2024-04-22T12:12:48.752Z,100521.78
2024-04-22T12:15:21.000Z,100499.22
2024-04-22T12:17:51.843Z,100537.50
2024-04-22T12:20:20.286Z,100533.13
2024-04-22T12:22:51.271Z,100492.16
2024-04-22T12:25:19.623Z,100485.16
2024-04-22T12:27:53.240Z,100510.44
2024-04-22T12:30:25.696Z,100516.59
2024-04-22T12:32:56.594Z,100524.41
2024-04-22T12:35:24.818Z,100516.53
2024-04-22T12:37:55.981Z,100499.97
2024-04-22T12:40:24.184Z,100500.88
2024-04-22T12:42:54.910Z,100512.22
2024-04-22T12:45:25.696Z,100504.34
2024-04-22T12:48:12.237Z,100503.50
2024-04-22T12:50:47.042Z,100493.88
2024-04-22T12:53:20.939Z,100484.25
2024-04-22T12:55:51.956Z,100486.00
2024-04-22T12:58:23.057Z,100486.84
2024-04-22T13:00:56.797Z,100479.84
2024-04-22T13:03:27.676Z,100476.38
2024-04-22T13:05:59.498Z,100475.41
2024-04-22T13:08:30.769Z,100459.59
2024-04-22T13:11:01.875Z,100456.06
2024-04-22T13:13:32.751Z,100451.72
2024-04-22T13:16:06.186Z,100456.03
2024-04-22T13:18:37.102Z,100443.81
2024-04-22T13:21:06.416Z,100457.69
2024-04-22T13:23:37.188Z,100462.09
2024-04-22T13:26:05.554Z,100438.63
2024-04-22T13:28:36.402Z,100449.06
2024-04-22T13:31:10.283Z,100437.75
2024-04-22T13:33:41.091Z,100427.31
2024-04-22T13:36:09.427Z,100439.47
2024-04-22T13:38:40.168Z,100416.03
2024-04-22T13:41:08.228Z,100430.88
2024-04-22T13:43:39.122Z,100430.00
2024-04-22T13:46:10.235Z,100422.25
2024-04-22T13:48:44.116Z,100427.50
2024-04-22T13:51:13.995Z,100453.59
2024-04-22T13:53:44.886Z,100430.13
2024-04-22T13:56:13.117Z,100411.03
2024-04-22T13:58:44.370Z,100421.34
2024-04-22T14:01:15.603Z,100413.53
2024-04-22T14:03:48.426Z,100398.69
2024-04-22T14:06:16.743Z,100405.56
2024-04-22T14:08:47.792Z,100394.13
2024-04-22T14:11:16.393Z,100394.06
2024-04-22T14:13:47.279Z,100386.13
2024-04-22T14:16:18.126Z,100380.00
2024-04-22T14:18:48.888Z,100368.63
2024-04-22T14:21:17.232Z,100352.03
2024-04-22T14:23:47.963Z,100352.03
2024-04-22T14:26:20.092Z,100354.59
2024-04-22T14:28:52.070Z,100344.09
2024-04-22T14:31:24.346Z,100340.63
2024-04-22T14:33:56.323Z,100305.88
2024-04-22T14:36:24.830Z,100332.75
2024-04-22T14:38:55.549Z,100323.19
2024-04-22T14:41:23.846Z,100318.91
2024-04-22T14:43:54.739Z,100296.25
2024-04-22T14:46:26.060Z,100306.63
2024-04-22T14:48:57.536Z,100289.25
2024-04-22T14:51:25.783Z,100302.16
2024-04-22T14:53:56.972Z,100300.38
2024-04-22T14:56:25.128Z,100295.97
2024-04-22T14:58:57.021Z,100293.31
2024-04-22T15:01:28.337Z,100285.44
2024-04-22T15:03:59.263Z,100274.91
2024-04-22T15:06:27.565Z,100260.94
2024-04-22T15:08:58.261Z,100263.63
2024-04-22T15:11:30.534Z,100257.53
2024-04-22T15:14:01.518Z,100249.66
2024-04-22T15:16:32.382Z,100225.34
2024-04-22T15:19:03.173Z,100237.50
2024-04-22T15:21:31.814Z,100231.44
2024-04-22T15:24:02.513Z,100215.75
2024-04-22T15:26:30.636Z,100226.28
2024-04-22T15:29:03.434Z,100231.56
2024-04-22T15:31:34.421Z,100231.56
2024-04-22T15:34:05.171Z,100224.56
2024-04-22T15:36:33.343Z,100225.56
2024-04-22T15:39:05.611Z,100217.69
2024-04-22T15:41:33.708Z,100223.75
2024-04-22T15:44:04.871Z,100215.09
2024-04-22T15:46:38.438Z,100214.22
2024-04-22T15:49:06.546Z,100221.19
2024-04-22T15:51:37.223Z,100222.94
2024-04-22T15:54:05.665Z,100206.28
2024-04-22T15:56:39.383Z,100210.59
2024-04-22T15:59:09.492Z,100207.19
2024-04-22T16:01:43.330Z,100228.97
2024-04-22T16:04:14.321Z,100219.38
2024-04-22T16:06:42.459Z,100216.75
2024-04-22T16:09:13.402Z,100218.50
2024-04-22T16:11:41.579Z,100235.09
2024-04-22T16:14:12.317Z,100226.47
2024-04-22T16:16:43.213Z,100232.47
2024-04-22T16:19:14.040Z,100231.63
2024-04-22T16:21:42.621Z,100226.47
2024-04-22T16:24:13.372Z,100229.94
2024-04-22T16:26:41.486Z,100226.47
2024-04-22T16:29:15.224Z,100196.13
2024-04-22T16:31:46.325Z,100198.75
2024-04-22T16:34:17.278Z,100209.19
2024-04-22T16:36:45.579Z,100213.59
2024-04-22T16:39:16.253Z,100205.75
2024-04-22T16:41:44.310Z,100204.91
2024-04-22T16:44:14.987Z,100204.06
2024-04-22T16:46:45.833Z,100186.69
2024-04-22T16:49:17.206Z,100199.78
2024-04-22T16:51:45.421Z,100192.84
2024-04-22T16:54:16.266Z,100187.66
2024-04-22T16:56:44.368Z,100189.44
2024-04-22T16:59:15.082Z,100193.84
2024-04-22T17:01:45.871Z,100187.78
2024-04-22T17:04:16.673Z,100184.34
2024-04-22T17:06:44.721Z,100167.88
2024-04-22T17:09:17.363Z,100187.09
2024-04-22T17:11:45.584Z,100175.84
2024-04-22T17:14:16.310Z,100159.34
2024-04-22T17:16:47.101Z,100167.19
2024-04-22T17:19:18.124Z,100178.59
2024-04-22T17:21:48.057Z,100183.88
2024-04-22T17:24:18.918Z,100153.56
2024-04-22T17:26:46.898Z,100175.31
2024-04-22T17:29:17.606Z,100204.94
2024-04-22T17:31:48.328Z,100236.38
2024-04-22T17:34:19.265Z,100294.78
2024-04-22T17:36:47.422Z,100361.13
2024-04-22T17:39:19.053Z,100253.84
2024-04-22T17:41:47.119Z,100293.88
2024-04-22T17:44:18.012Z,100330.56
2024-04-22T17:46:48.815Z,100280.81
2024-04-22T17:49:20.469Z,100286.00
2024-04-22T17:51:48.659Z,100275.44
2024-04-22T17:54:19.380Z,100272.78
2024-04-22T17:56:56.119Z,100261.41
2024-04-22T17:59:30.714Z,100258.78
2024-04-22T18:02:01.491Z,100271.84
2024-04-22T18:04:32.418Z,100251.75
2024-04-22T18:07:00.673Z,100223.84
2024-04-22T18:09:32.833Z,100213.34
2024-04-22T18:12:01.149Z,100223.81
2024-04-22T18:14:31.935Z,100229.00
2024-04-22T18:17:03.627Z,100208.09
2024-04-22T18:19:37.789Z,100183.66
2024-04-22T18:22:11.392Z,100195.03
2024-04-22T18:24:50.145Z,100181.19
2024-04-22T18:27:18.188Z,100201.25
2024-04-22T18:29:49.193Z,100210.81
2024-04-22T18:32:20.081Z,100206.44
2024-04-22T18:34:50.953Z,100186.41
2024-04-22T18:37:19.214Z,100175.03
2024-04-22T18:39:50.382Z,100141.00
2024-04-22T18:42:21.790Z,100126.16
2024-04-22T18:44:52.669Z,100107.81
2024-04-22T18:47:24.028Z,100086.81
2024-04-22T18:49:55.012Z,100087.72
2024-04-22T18:52:25.962Z,100059.09
2024-04-22T18:54:59.949Z,100052.78
2024-04-22T18:57:28.197Z,100019.69
2024-04-22T18:59:59.331Z,100050.13
2024-04-22T19:02:30.290Z,100068.47
2024-04-22T19:05:01.475Z,100066.69
2024-04-22T19:07:32.079Z,100046.78
2024-04-22T19:10:03.125Z,100086.78
2024-04-22T19:12:32.066Z,100082.38
2024-04-22T19:15:02.727Z,100074.66
2024-04-22T19:17:35.250Z,100093.72
2024-04-22T19:20:07.811Z,100081.53
2024-04-22T19:22:39.044Z,100072.78
2024-04-22T19:25:10.397Z,100041.47
2024-04-22T19:27:39.039Z,100054.38
2024-04-22T19:30:10.939Z,100045.66
2024-04-22T19:32:44.300Z,100007.44
2024-04-22T19:35:15.830Z,100027.31
2024-04-22T19:37:44.472Z,100025.56
2024-04-22T19:40:15.255Z,100028.19
2024-04-22T19:42:43.426Z,100021.22
2024-04-22T19:45:17.329Z,100036.94
2024-04-22T19:47:48.792Z,100041.34
2024-04-22T19:50:22.752Z,100058.78
2024-04-22T19:52:50.909Z,100047.53
2024-04-22T19:55:21.643Z,100016.41
2024-04-22T19:57:55.202Z,100059.75
2024-04-22T20:00:26.930Z,100068.47
2024-04-22T20:03:01.133Z,100083.34
2024-04-22T20:05:32.160Z,100072.09
2024-04-22T20:08:00.462Z,100096.44
2024-04-22T20:10:31.285Z,100095.59
2024-04-22T20:12:59.479Z,100091.22
2024-04-22T20:15:41.201Z,100083.41
2024-04-22T20:18:17.561Z,100086.91
2024-04-22T20:20:58.246Z,100097.34
2024-04-22T20:23:26.633Z,100089.41
2024-04-22T20:25:58.250Z,100096.41
2024-04-22T20:28:27.629Z,100104.25
2024-04-22T20:30:58.837Z,100096.34
2024-04-22T20:33:29.765Z,100100.72
2024-04-22T20:36:00.674Z,100085.09
2024-04-22T20:38:28.821Z,100099.88
2024-04-22T20:41:03.293Z,100093.78
2024-04-22T20:43:35.118Z,100079.81
2024-04-22T20:46:06.867Z,100089.41
2024-04-22T20:48:39.067Z,100082.50
2024-04-22T20:51:13.872Z,100070.34
2024-04-22T20:53:41.907Z,100076.34
2024-04-22T20:56:15.018Z,100077.25
2024-04-22T20:58:45.247Z,100072.03
2024-04-22T21:01:17.372Z,100068.56
2024-04-22T21:03:48.203Z,100078.06
2024-04-22T21:06:20.374Z,100058.97
2024-04-22T21:08:48.808Z,100077.19
2024-04-22T21:11:19.617Z,100079.78
2024-04-22T21:13:58.074Z,100075.44
2024-04-22T21:16:28.920Z,100080.72
2024-04-22T21:19:07.583Z,100071.13
2024-04-22T21:21:46.118Z,100079.81
2024-04-22T21:24:14.535Z,100065.00
2024-04-22T21:26:45.267Z,100069.28
2024-04-22T21:29:16.090Z,100045.84
2024-04-22T21:31:49.790Z,100057.06
2024-04-22T21:34:23.411Z,100045.78
2024-04-22T21:36:51.896Z,100048.28
2024-04-22T21:39:26.379Z,100049.13
2024-04-22T21:41:54.450Z,100040.50
2024-04-22T21:44:27.050Z,100050.91
2024-04-22T21:46:58.111Z,100051.81
2024-04-22T21:49:33.353Z,100044.81
2024-04-22T21:52:01.469Z,100048.28
2024-04-22T21:54:33.792Z,100041.34
2024-04-22T21:57:39.180Z,100040.44
2024-04-22T22:00:47.758Z,100039.56
2024-04-22T22:03:52.949Z,100041.28
2024-04-22T22:07:01.324Z,100031.69
2024-04-22T22:09:33.770Z,100026.50
2024-04-22T22:12:07.636Z,100029.94
2024-04-22T22:14:35.707Z,100028.16
2024-04-22T22:17:06.676Z,100023.78
2024-04-22T22:19:35.717Z,100029.88
2024-04-22T22:22:06.437Z,100030.75
2024-04-22T22:24:42.954Z,100029.84
2024-04-22T22:27:15.948Z,100031.56
2024-04-22T22:29:44.170Z,100012.44
2024-04-22T22:32:14.910Z,100022.75
2024-04-22T22:34:43.094Z,100020.09
2024-04-22T22:37:13.906Z,100023.53
2024-04-22T22:39:47.402Z,100004.34
2024-04-22T22:42:19.695Z,100022.50
2024-04-22T22:44:49.755Z,100017.25
2024-04-22T22:47:20.659Z,100012.00
2024-04-22T22:49:48.886Z,100014.47
2024-04-22T22:52:19.561Z,99998.78
2024-04-22T22:54:50.260Z,100020.38
2024-04-22T22:57:21.077Z,100007.25
2024-04-22T22:59:49.131Z,100016.72
2024-04-22T23:02:19.857Z,100014.03
2024-04-22T23:04:47.969Z,100018.28
2024-04-22T23:07:18.616Z,100017.34
2024-04-22T23:09:46.799Z,100015.53
2024-04-22T23:12:21.255Z,100017.22
2024-04-22T23:14:52.000Z,100018.03
2024-04-22T23:17:22.746Z,100024.06
2024-04-22T23:19:51.127Z,100019.63
2024-04-22T23:22:22.216Z,100010.03
2024-04-22T23:24:50.615Z,100019.50
2024-04-22T23:27:24.206Z,100009.75
2024-04-22T23:29:52.538Z,100019.34
2024-04-22T23:32:23.437Z,100020.09
2024-04-22T23:34:53.656Z,100013.94
2024-04-22T23:37:24.382Z,99988.88
2024-04-22T23:39:52.669Z,100018.25
2024-04-22T23:42:26.033Z,100013.78
2024-04-22T23:44:54.329Z,100008.47
2024-04-22T23:47:25.080Z,100004.06
2024-04-22T23:49:53.394Z,100010.16
2024-04-22T23:52:24.487Z,100001.44
2024-04-22T23:54:52.738Z,100010.09
2024-04-22T23:57:26.036Z,100003.06
2024-04-22T23:59:54.138Z,100008.31
